Terminal Aerodrome Forecast
Issued by NWS

Current Version | Previous Version | Text Only | Print | Product List | Glossary Off
Versions: 1 2 3 4 5 6 7 8 9 10 11 12 13

920
FTUS41 KPBZ 060535
TAFMGW
TAF
KMGW 060535Z 0606/0706 VRB03KT P6SM BKN200
     FM060800 VRB03KT P6SM BKN040
     FM061800 24010KT P6SM SCT040 BKN120
     FM070100 VRB04KT P6SM SCT200=

USA.gov is the U.S. government's official web portal to all federal, state and local government web resources and services.